Time;durP1;ratioP1;P1;durP2;ratioP2;P2;SDS_P1;SDS_P2;PMS_P1;PMS_P2;Temp;Humidity;BMP_temperature;BMP_pressure;BME280_temperature;BME280_humidity;BME280_pressure;Samples;Min_cycle;Max_cycle;Signal;HPM_P1;HPM_P2
2023/06/27 00:00:00;;;;;;;4.95;1.30;;;15.40;99.90;;;;;;5049959;28;20033;-52
2023/06/27 00:02:26;;;;;;;2.88;1.23;;;15.40;99.90;;;;;;5050024;28;20028;-51
2023/06/27 00:04:52;;;;;;;3.85;1.63;;;15.30;99.90;;;;;;5050165;28;20031;-53
2023/06/27 00:07:18;;;;;;;5.68;1.50;;;15.40;99.90;;;;;;5049963;28;20455;-49
2023/06/27 00:09:43;;;;;;;3.10;1.30;;;15.40;99.90;;;;;;5049929;28;20460;-44
2023/06/27 00:12:09;;;;;;;4.30;1.48;;;15.40;99.90;;;;;;5049854;28;20066;-52
2023/06/27 00:14:37;;;;;;;7.40;1.73;;;15.40;99.90;;;;;;5049586;28;20098;-43
2023/06/27 00:17:04;;;;;;;2.13;1.10;;;15.40;99.90;;;;;;5050098;28;20130;-44
2023/06/27 00:19:31;;;;;;;2.85;1.42;;;15.40;99.90;;;;;;5052974;28;20029;-44
2023/06/27 00:21:56;;;;;;;5.70;1.40;;;15.40;99.90;;;;;;5053420;28;20025;-50
2023/06/27 00:24:23;;;;;;;3.78;1.30;;;15.40;99.90;;;;;;5053501;28;20013;-53
2023/06/27 00:26:49;;;;;;;2.33;1.25;;;15.40;99.90;;;;;;5053471;28;20040;-48
2023/06/27 00:29:15;;;;;;;4.32;1.63;;;15.40;99.90;;;;;;5053233;28;20036;-48
2023/06/27 00:31:40;;;;;;;6.53;1.50;;;15.30;99.90;;;;;;5053414;28;20108;-50
2023/06/27 00:34:06;;;;;;;4.22;1.40;;;15.30;99.90;;;;;;5053136;28;20396;-51
2023/06/27 00:36:32;;;;;;;4.22;1.30;;;15.30;99.90;;;;;;5053452;28;20029;-50
2023/06/27 00:38:57;;;;;;;3.60;1.38;;;15.20;99.90;;;;;;5053103;28;20391;-51
2023/06/27 00:41:23;;;;;;;3.58;1.60;;;15.20;99.90;;;;;;5053020;28;20095;-50
2023/06/27 00:43:49;;;;;;;6.07;1.23;;;15.00;99.90;;;;;;5053113;28;20440;-50
2023/06/27 00:46:26;;;;;;;2.63;1.20;;;15.00;99.90;;;;;;5052929;28;20019;-44
2023/06/27 00:48:52;;;;;;;3.53;1.42;;;14.90;99.90;;;;;;5053056;28;20089;-47
2023/06/27 00:51:17;;;;;;;3.85;1.40;;;14.90;99.90;;;;;;5052946;28;20025;-48
2023/06/27 00:53:43;;;;;;;3.28;1.05;;;14.90;99.90;;;;;;5052912;28;20508;-50
2023/06/27 00:56:10;;;;;;;3.00;1.30;;;14.90;99.90;;;;;;5052671;28;20078;-46
2023/06/27 00:58:36;;;;;;;6.68;1.50;;;14.90;99.90;;;;;;5052945;28;20082;-44
2023/06/27 01:01:03;;;;;;;3.85;1.40;;;14.80;99.90;;;;;;5052811;28;20104;-46
2023/06/27 01:03:32;;;;;;;3.20;1.25;;;14.80;99.90;;;;;;5052876;28;20028;-56
2023/06/27 01:06:01;;;;;;;2.47;1.15;;;14.70;99.90;;;;;;5052777;28;20033;-55
2023/06/27 01:08:36;;;;;;;3.63;1.40;;;14.70;99.90;;;;;;5052722;28;20037;-52
2023/06/27 01:11:10;;;;;;;5.00;1.20;;;14.60;99.90;;;;;;5052834;28;20029;-56
2023/06/27 01:13:43;;;;;;;2.75;1.15;;;14.60;99.90;;;;;;5052512;28;20033;-52
2023/06/27 01:16:10;;;;;;;2.97;1.30;;;14.60;99.90;;;;;;5052361;28;20121;-49
2023/06/27 01:18:38;;;;;;;2.45;1.20;;;14.60;99.90;;;;;;5052505;28;20122;-50
2023/06/27 01:21:08;;;;;;;7.30;1.48;;;14.70;99.90;;;;;;5052368;28;20441;-49
2023/06/27 01:24:10;;;;;;;2.75;1.05;;;14.80;99.90;;;;;;5052414;28;20052;-47
2023/06/27 01:26:36;;;;;;;3.85;1.38;;;14.80;99.90;;;;;;5030095;28;20030;-52
2023/06/27 01:29:01;;;;;;;3.17;1.40;;;14.90;99.90;;;;;;5043559;28;20059;-46
2023/06/27 01:31:45;;;;;;;3.63;1.10;;;14.90;99.90;;;;;;5052002;28;20017;-51
2023/06/27 01:34:36;;;;;;;3.75;1.10;;;14.90;99.90;;;;;;5052195;28;20063;-53
2023/06/27 01:37:05;;;;;;;6.07;1.25;;;14.90;99.90;;;;;;5051946;28;20057;-45
2023/06/27 01:39:55;;;;;;;4.20;1.30;;;14.90;99.90;;;;;;5051906;28;20727;-47
2023/06/27 01:42:26;;;;;;;3.45;0.90;;;14.90;99.90;;;;;;5052181;28;20043;-44
2023/06/27 01:44:53;;;;;;;5.32;1.42;;;14.70;99.90;;;;;;5051835;28;20461;-48
2023/06/27 01:47:21;;;;;;;2.70;1.17;;;14.60;99.90;;;;;;5052046;28;20033;-47
2023/06/27 01:49:46;;;;;;;6.05;1.30;;;14.40;99.90;;;;;;5051646;28;20120;-49
2023/06/27 01:52:15;;;;;;;5.95;1.52;;;14.30;99.90;;;;;;5050665;28;20147;-49
2023/06/27 01:54:41;;;;;;;3.70;1.67;;;14.20;99.90;;;;;;5051962;28;20043;-49
2023/06/27 01:57:07;;;;;;;1.50;0.98;;;14.10;99.90;;;;;;5051668;28;20032;-47
2023/06/27 01:59:33;;;;;;;2.25;0.90;;;14.10;99.90;;;;;;5051602;28;20482;-49
2023/06/27 02:01:58;;;;;;;3.28;1.20;;;14.10;99.90;;;;;;5051537;28;20021;-48
2023/06/27 02:04:24;;;;;;;4.50;1.35;;;14.10;99.90;;;;;;5051615;28;20029;-45
2023/06/27 02:06:50;;;;;;;4.57;1.30;;;14.00;99.90;;;;;;5051418;28;20021;-50
2023/06/27 02:09:15;;;;;;;4.35;1.42;;;14.00;99.90;;;;;;5051761;28;20068;-49
2023/06/27 02:11:41;;;;;;;1.67;0.85;;;14.00;99.90;;;;;;5051352;28;20029;-47
2023/06/27 02:14:06;;;;;;;5.50;1.38;;;14.00;99.90;;;;;;5051168;28;20024;-46
2023/06/27 02:16:32;;;;;;;3.20;1.08;;;14.10;99.90;;;;;;5051275;28;20033;-44
2023/06/27 02:18:58;;;;;;;2.95;1.00;;;14.10;99.90;;;;;;5051320;28;20033;-46
2023/06/27 02:21:23;;;;;;;2.58;1.30;;;14.20;99.90;;;;;;5051078;28;20028;-47
2023/06/27 02:23:49;;;;;;;8.65;1.70;;;14.30;99.90;;;;;;5051348;28;20485;-50
2023/06/27 02:26:14;;;;;;;6.45;1.42;;;14.20;99.90;;;;;;5051275;28;20075;-46
2023/06/27 02:28:40;;;;;;;2.20;1.05;;;14.20;99.90;;;;;;5051078;28;20176;-45
2023/06/27 02:31:06;;;;;;;3.13;1.25;;;14.20;99.90;;;;;;5050983;28;20040;-49
2023/06/27 02:33:31;;;;;;;2.83;1.20;;;14.30;99.90;;;;;;5051183;28;20112;-55
2023/06/27 02:35:57;;;;;;;4.50;1.55;;;14.30;99.90;;;;;;5050939;28;20108;-49
2023/06/27 02:38:22;;;;;;;6.78;1.33;;;14.40;99.90;;;;;;5050852;28;20032;-49
2023/06/27 02:40:48;;;;;;;3.85;1.20;;;14.40;99.90;;;;;;5050222;28;20021;-43
2023/06/27 02:43:14;;;;;;;3.45;1.60;;;14.40;99.90;;;;;;5050707;28;20029;-51
2023/06/27 02:45:40;;;;;;;2.35;1.20;;;14.40;99.90;;;;;;5051017;28;20104;-44
2023/06/27 02:48:07;;;;;;;3.60;1.20;;;14.40;99.90;;;;;;5050682;28;20029;-47
2023/06/27 02:50:32;;;;;;;4.53;1.10;;;14.40;99.90;;;;;;5050830;28;20028;-49
2023/06/27 02:52:58;;;;;;;3.83;1.13;;;14.40;99.90;;;;;;5050767;28;20025;-48
2023/06/27 02:55:23;;;;;;;5.30;1.65;;;14.50;99.90;;;;;;5050726;28;20482;-43
2023/06/27 02:57:49;;;;;;;2.80;1.27;;;14.50;99.90;;;;;;5049369;28;20049;-52
2023/06/27 03:00:15;;;;;;;2.00;1.08;;;14.50;99.90;;;;;;5050642;28;20025;-52
2023/06/27 03:02:41;;;;;;;3.15;1.40;;;14.60;99.90;;;;;;5050660;28;20111;-49
2023/06/27 03:05:07;;;;;;;4.30;1.25;;;14.60;99.90;;;;;;5050461;28;20477;-50
2023/06/27 03:07:32;;;;;;;3.22;1.23;;;14.60;99.90;;;;;;5050824;28;20101;-47
2023/06/27 03:09:58;;;;;;;6.78;1.23;;;14.70;99.90;;;;;;5050479;28;20102;-49
2023/06/27 03:12:23;;;;;;;3.65;1.23;;;14.70;99.90;;;;;;5050455;28;20017;-46
2023/06/27 03:14:49;;;;;;;2.25;1.00;;;14.70;99.90;;;;;;5050095;28;20092;-52
2023/06/27 03:17:15;;;;;;;2.75;1.00;;;14.70;99.90;;;;;;5050442;28;20048;-50
2023/06/27 03:19:40;;;;;;;2.30;1.10;;;14.70;99.90;;;;;;5050196;28;20032;-50
2023/06/27 03:22:06;;;;;;;2.95;1.00;;;14.70;99.90;;;;;;5050568;28;20052;-45
2023/06/27 03:24:32;;;;;;;2.20;1.27;;;14.70;99.90;;;;;;5050244;28;20028;-47
2023/06/27 03:26:57;;;;;;;2.13;1.23;;;14.70;99.90;;;;;;5050488;28;20029;-50
2023/06/27 03:29:23;;;;;;;2.35;1.27;;;14.70;99.90;;;;;;5050087;28;20393;-46
2023/06/27 03:31:49;;;;;;;3.90;1.20;;;14.70;99.90;;;;;;5050322;28;20021;-49
2023/06/27 03:34:14;;;;;;;2.72;1.25;;;14.80;99.90;;;;;;5050268;28;20025;-53
2023/06/27 03:36:40;;;;;;;2.15;1.02;;;14.70;99.90;;;;;;5050074;28;20389;-51
2023/06/27 03:39:05;;;;;;;3.40;1.20;;;14.70;99.90;;;;;;5050352;28;20108;-51
2023/06/27 03:41:31;;;;;;;1.73;1.10;;;14.70;99.90;;;;;;5050129;28;20021;-44
2023/06/27 03:43:57;;;;;;;5.35;1.70;;;14.60;99.90;;;;;;5050327;28;20029;-42
2023/06/27 03:46:24;;;;;;;2.33;1.20;;;14.50;99.90;;;;;;5050053;28;20018;-56
2023/06/27 03:48:54;;;;;;;3.00;1.25;;;14.50;99.90;;;;;;5050079;28;20393;-58
2023/06/27 03:51:19;;;;;;;;;;;14.50;99.90;;;;;;5050584;28;20059;-53
2023/06/27 03:53:45;;;;;;;3.88;1.35;;;14.40;99.90;;;;;;5052234;28;19908;-45
2023/06/27 03:56:11;;;;;;;4.32;1.40;;;14.40;99.90;;;;;;5054004;28;20031;-52
2023/06/27 03:58:36;;;;;;;3.83;1.40;;;14.40;99.90;;;;;;5052524;28;20032;-54
2023/06/27 04:01:03;;;;;;;4.25;1.42;;;14.40;99.90;;;;;;5053874;28;20025;-55
2023/06/27 04:03:28;;;;;;;3.13;1.50;;;14.40;99.90;;;;;;5052805;28;20061;-48
2023/06/27 04:05:54;;;;;;;3.22;1.10;;;14.40;99.90;;;;;;5053770;28;20071;-48
2023/06/27 04:08:20;;;;;;;6.20;1.45;;;14.50;99.90;;;;;;5053621;28;20112;-51
2023/06/27 04:10:45;;;;;;;2.92;1.15;;;14.50;99.90;;;;;;5053602;28;20060;-45
2023/06/27 04:13:11;;;;;;;3.05;1.40;;;14.50;99.90;;;;;;5053924;28;20023;-50
2023/06/27 04:15:39;;;;;;;3.67;1.60;;;14.50;99.90;;;;;;5053540;28;20375;-44
2023/06/27 04:18:06;;;;;;;2.30;1.17;;;14.50;99.90;;;;;;5052312;28;20032;-43
2023/06/27 04:20:31;;;;;;;4.75;1.40;;;14.50;99.90;;;;;;5053541;28;20082;-43
2023/06/27 04:22:57;;;;;;;1.50;1.00;;;14.40;99.90;;;;;;5053653;28;20107;-42
2023/06/27 04:25:23;;;;;;;2.17;1.08;;;14.40;99.90;;;;;;5053523;28;20029;-43
2023/06/27 04:27:48;;;;;;;3.88;1.20;;;14.40;99.90;;;;;;5053414;28;20079;-43
2023/06/27 04:30:14;;;;;;;7.18;1.83;;;14.30;99.90;;;;;;5053253;28;20044;-43
2023/06/27 04:32:40;;;;;;;2.97;1.20;;;14.30;99.90;;;;;;5053223;28;20028;-44
2023/06/27 04:35:06;;;;;;;4.53;1.50;;;14.40;99.90;;;;;;5053311;28;20053;-43
2023/06/27 04:37:32;;;;;;;5.53;1.40;;;14.40;99.90;;;;;;5053234;28;20029;-44
2023/06/27 04:39:58;;;;;;;3.15;1.10;;;14.40;99.90;;;;;;5053336;28;20021;-42
2023/06/27 04:42:23;;;;;;;3.03;1.10;;;14.50;99.90;;;;;;5053291;28;20072;-42
2023/06/27 04:44:49;;;;;;;3.03;1.42;;;14.50;99.90;;;;;;5053014;28;20375;-42
2023/06/27 04:47:15;;;;;;;4.50;1.30;;;14.50;99.90;;;;;;5052942;28;20432;-42
2023/06/27 04:49:40;;;;;;;4.10;1.30;;;14.50;99.90;;;;;;5053105;28;20041;-51
2023/06/27 04:52:06;;;;;;;4.25;1.55;;;14.60;99.90;;;;;;5053069;28;20404;-42
2023/06/27 04:54:31;;;;;;;3.17;1.33;;;14.60;99.90;;;;;;5052887;28;20029;-42
2023/06/27 04:56:58;;;;;;;2.92;0.98;;;14.60;99.90;;;;;;5053039;28;20028;-52
2023/06/27 04:59:23;;;;;;;2.47;1.27;;;14.70;99.90;;;;;;5052847;28;20033;-54
2023/06/27 05:01:49;;;;;;;3.40;1.42;;;14.80;99.90;;;;;;5052683;28;20450;-43
2023/06/27 05:04:14;;;;;;;3.13;1.50;;;14.80;99.90;;;;;;5052086;28;20029;-43
2023/06/27 05:06:40;;;;;;;3.67;1.48;;;14.80;99.90;;;;;;5052498;28;20040;-43
2023/06/27 05:09:06;;;;;;;2.13;0.98;;;14.90;99.90;;;;;;5052677;28;20033;-52
2023/06/27 05:11:31;;;;;;;2.80;1.00;;;14.80;99.90;;;;;;5052460;28;20028;-50
2023/06/27 05:13:57;;;;;;;2.75;1.20;;;14.90;99.90;;;;;;5052654;28;20486;-46
2023/06/27 05:16:23;;;;;;;3.05;1.25;;;14.90;99.90;;;;;;5052171;28;20230;-53
2023/06/27 05:18:49;;;;;;;3.13;1.00;;;14.90;99.90;;;;;;5052324;28;20502;-52
2023/06/27 05:21:14;;;;;;;3.47;1.20;;;15.00;99.90;;;;;;5052314;28;20029;-48
2023/06/27 05:23:40;;;;;;;4.00;1.20;;;15.00;99.90;;;;;;5052409;28;20025;-46
2023/06/27 05:26:06;;;;;;;8.73;1.70;;;15.10;99.90;;;;;;5052383;28;20060;-46
2023/06/27 05:28:33;;;;;;;2.22;1.15;;;15.20;99.90;;;;;;5052154;28;20446;-42
2023/06/27 05:30:59;;;;;;;4.07;1.30;;;15.30;99.90;;;;;;5052123;28;20033;-43
2023/06/27 05:33:24;;;;;;;5.30;1.45;;;15.30;99.90;;;;;;5052402;28;20017;-45
2023/06/27 05:35:50;;;;;;;3.40;1.23;;;15.40;99.90;;;;;;5052137;28;20100;-49
2023/06/27 05:38:16;;;;;;;3.47;1.20;;;15.50;99.90;;;;;;5052275;28;20557;-47
2023/06/27 05:40:41;;;;;;;2.92;1.10;;;15.60;99.90;;;;;;5051902;28;20037;-45
2023/06/27 05:43:08;;;;;;;2.85;1.15;;;15.60;99.90;;;;;;5052008;28;20029;-48
2023/06/27 05:45:34;;;;;;;2.67;1.30;;;15.80;99.90;;;;;;5051840;28;20247;-53
2023/06/27 05:47:59;;;;;;;4.57;1.38;;;15.90;99.90;;;;;;5052149;28;20466;-43
2023/06/27 05:50:25;;;;;;;2.35;1.20;;;16.00;99.90;;;;;;5052017;28;20037;-51
2023/06/27 05:52:51;;;;;;;4.72;1.00;;;16.10;99.90;;;;;;5051794;28;20025;-53
2023/06/27 05:55:16;;;;;;;3.33;1.30;;;16.10;99.90;;;;;;5051828;28;20382;-53
2023/06/27 05:57:42;;;;;;;2.30;1.02;;;16.30;99.90;;;;;;5051537;28;20044;-46
2023/06/27 06:00:10;;;;;;;5.53;1.55;;;16.30;99.90;;;;;;5051681;28;20381;-44
2023/06/27 06:02:37;;;;;;;6.13;1.40;;;16.60;99.90;;;;;;5051464;28;20096;-46
2023/06/27 06:05:04;;;;;;;4.40;1.20;;;16.90;99.90;;;;;;5051550;28;20021;-46
2023/06/27 06:07:30;;;;;;;5.80;1.60;;;17.30;99.90;;;;;;5051693;28;20025;-47
2023/06/27 06:09:56;;;;;;;2.05;1.17;;;17.70;99.90;;;;;;5051257;28;20394;-43
2023/06/27 06:12:22;;;;;;;2.17;1.20;;;18.00;99.90;;;;;;5051371;28;20096;-43
2023/06/27 06:14:47;;;;;;;1.85;1.02;;;18.50;99.90;;;;;;5050928;28;22219;-43
2023/06/27 06:17:13;;;;;;;4.07;1.27;;;18.90;99.90;;;;;;5050783;28;20029;-43
2023/06/27 06:19:40;;;;;;;2.47;1.10;;;19.30;99.90;;;;;;5050098;28;20054;-45
2023/06/27 06:22:06;;;;;;;4.35;1.40;;;19.60;99.90;;;;;;5051234;28;20083;-49
2023/06/27 06:24:32;;;;;;;4.00;1.10;;;19.80;99.90;;;;;;5051286;28;20056;-48
2023/06/27 06:26:57;;;;;;;2.08;1.13;;;20.10;99.90;;;;;;5051193;28;20150;-43
2023/06/27 06:29:23;;;;;;;3.88;1.10;;;20.30;99.90;;;;;;5050957;28;20029;-48
2023/06/27 06:31:49;;;;;;;2.83;1.05;;;20.50;99.90;;;;;;5051263;28;20027;-50
2023/06/27 06:34:14;;;;;;;4.60;1.40;;;20.80;99.90;;;;;;5050992;28;20025;-46
2023/06/27 06:36:40;;;;;;;4.88;1.48;;;21.00;99.90;;;;;;5051101;28;20040;-50
2023/06/27 06:39:05;;;;;;;4.60;1.08;;;21.30;99.90;;;;;;5050686;28;20103;-46
2023/06/27 06:41:31;;;;;;;1.65;0.93;;;21.50;99.90;;;;;;5050981;28;20029;-44
2023/06/27 06:43:56;;;;;;;7.05;1.30;;;21.80;99.90;;;;;;5049499;28;20028;-44
2023/06/27 06:46:23;;;;;;;3.28;0.85;;;21.90;99.90;;;;;;5050962;28;20027;-46
2023/06/27 06:48:49;;;;;;;3.05;1.13;;;22.10;99.90;;;;;;5050774;28;20056;-48
2023/06/27 06:51:15;;;;;;;3.35;1.08;;;21.80;99.90;;;;;;5050634;28;20036;-47
2023/06/27 06:53:40;;;;;;;2.42;0.90;;;21.60;99.90;;;;;;5050813;28;20044;-52
2023/06/27 06:56:06;;;;;;;5.15;1.17;;;21.60;99.90;;;;;;5050678;28;20047;-50
2023/06/27 06:58:31;;;;;;;4.35;1.52;;;21.60;99.90;;;;;;5050741;28;20025;-50
2023/06/27 07:00:57;;;;;;;3.97;1.05;;;21.70;99.90;;;;;;5050554;28;20025;-44
2023/06/27 07:03:23;;;;;;;1.83;0.90;;;22.00;99.90;;;;;;5050529;28;20021;-48
2023/06/27 07:05:48;;;;;;;5.15;1.35;;;22.60;99.90;;;;;;5050545;28;20227;-47
2023/06/27 07:08:14;;;;;;;3.67;1.13;;;22.90;99.90;;;;;;5050431;28;20017;-54
2023/06/27 07:10:40;;;;;;;3.10;1.17;;;23.00;99.90;;;;;;5050592;28;20474;-45
2023/06/27 07:13:05;;;;;;;6.40;1.45;;;22.90;99.90;;;;;;5050428;28;20025;-44
2023/06/27 07:15:33;;;;;;;2.83;1.17;;;22.70;99.90;;;;;;5050254;28;20106;-43
2023/06/27 07:17:59;;;;;;;2.78;1.08;;;22.40;99.90;;;;;;5050554;28;20063;-45
2023/06/27 07:20:25;;;;;;;3.28;1.05;;;22.10;99.90;;;;;;5050278;28;20044;-44
2023/06/27 07:22:51;;;;;;;4.70;1.33;;;21.90;99.90;;;;;;5050582;28;20052;-47
2023/06/27 07:25:17;;;;;;;3.40;1.20;;;21.70;99.90;;;;;;5050387;28;20517;-47
2023/06/27 07:27:43;;;;;;;6.70;1.25;;;21.70;99.90;;;;;;5052411;28;20048;-52
2023/06/27 07:30:10;;;;;;;5.22;1.50;;;21.70;99.90;;;;;;5054409;28;20119;-45
2023/06/27 07:32:35;;;;;;;3.83;1.38;;;21.90;99.90;;;;;;5054553;28;20036;-49
2023/06/27 07:35:01;;;;;;;5.63;1.30;;;22.20;99.90;;;;;;5054425;28;20386;-51
2023/06/27 07:37:27;;;;;;;2.75;1.20;;;22.50;99.90;;;;;;5054321;28;20017;-47
2023/06/27 07:39:52;;;;;;;4.70;1.10;;;22.70;99.90;;;;;;5054120;28;20398;-49
2023/06/27 07:42:18;;;;;;;10.15;1.58;;;22.70;99.90;;;;;;5054179;28;20025;-47
2023/06/27 07:44:44;;;;;;;4.97;1.60;;;22.90;99.90;;;;;;5054212;28;20052;-46
2023/06/27 07:47:10;;;;;;;4.00;1.15;;;23.40;99.90;;;;;;5053965;28;20550;-51
2023/06/27 07:49:37;;;;;;;7.53;1.65;;;23.90;99.90;;;;;;5054063;28;20053;-47
2023/06/27 07:52:05;;;;;;;5.45;1.35;;;24.40;99.90;;;;;;5054112;28;20064;-44
2023/06/27 07:54:31;;;;;;;5.83;1.10;;;24.90;99.90;;;;;;5053810;28;20385;-52
2023/06/27 07:56:57;;;;;;;2.45;1.00;;;25.20;99.90;;;;;;5054039;28;20262;-45
2023/06/27 07:59:23;;;;;;;7.88;1.58;;;25.50;99.90;;;;;;5053914;28;20021;-48
2023/06/27 08:01:48;;;;;;;4.22;1.45;;;25.70;99.90;;;;;;5054110;28;20028;-45
2023/06/27 08:04:17;;;;;;;5.53;1.17;;;25.70;99.90;;;;;;5053908;28;20036;-48
2023/06/27 08:06:43;;;;;;;5.57;1.20;;;25.70;99.90;;;;;;5053976;28;20162;-46
2023/06/27 08:09:08;;;;;;;4.60;1.10;;;26.20;99.90;;;;;;5052395;28;20443;-46
2023/06/27 08:11:34;;;;;;;2.30;1.00;;;26.50;99.90;;;;;;5053629;28;20025;-46
2023/06/27 08:14:00;;;;;;;4.15;0.90;;;26.60;99.90;;;;;;5053822;28;20118;-44
2023/06/27 08:16:26;;;;;;;3.90;1.27;;;26.70;99.90;;;;;;5053476;28;20056;-46
2023/06/27 08:18:52;;;;;;;2.67;0.82;;;27.00;99.90;;;;;;5053568;28;20029;-44
2023/06/27 08:21:18;;;;;;;3.25;1.08;;;27.20;99.90;;;;;;5053551;28;20501;-48
2023/06/27 08:23:44;;;;;;;4.38;1.58;;;27.40;99.90;;;;;;5053361;28;20100;-46
2023/06/27 08:26:14;;;;;;;5.55;0.95;;;27.70;97.80;;;;;;5053571;28;20092;-47
2023/06/27 08:28:40;;;;;;;2.45;1.00;;;27.90;99.80;;;;;;5053232;28;20033;-46
2023/06/27 08:31:05;;;;;;;5.15;1.58;;;28.00;95.40;;;;;;5053482;28;20033;-44
2023/06/27 08:33:31;;;;;;;3.85;1.27;;;28.00;96.50;;;;;;5053697;28;20036;-52
2023/06/27 08:35:56;;;;;;;3.35;1.05;;;28.30;96.40;;;;;;5053161;28;20072;-55
2023/06/27 08:38:22;;;;;;;1.90;1.00;;;28.40;95.50;;;;;;5047679;28;20037;-51
2023/06/27 08:40:56;;;;;;;2.00;1.13;;;28.60;96.70;;;;;;5052320;28;20152;-54
2023/06/27 08:43:22;;;;;;;2.55;1.00;;;28.60;94.50;;;;;;5053120;28;20388;-47
2023/06/27 08:45:49;;;;;;;3.08;1.05;;;28.60;93.70;;;;;;5053032;28;20390;-50
2023/06/27 08:48:17;;;;;;;3.10;1.10;;;28.40;94.40;;;;;;5052971;28;20352;-45
2023/06/27 08:50:43;;;;;;;5.30;1.15;;;28.10;96.80;;;;;;5052560;28;20037;-45
2023/06/27 08:53:14;;;;;;;3.03;1.23;;;28.30;95.40;;;;;;5051664;28;20048;-46
2023/06/27 08:56:01;;;;;;;3.35;1.20;;;28.60;94.70;;;;;;5052543;28;20108;-46
2023/06/27 08:58:51;;;;;;;2.70;1.17;;;28.60;94.10;;;;;;5052899;28;20078;-46
2023/06/27 09:01:18;;;;;;;2.95;1.10;;;28.30;91.90;;;;;;5052718;28;20024;-46
2023/06/27 09:03:44;;;;;;;2.63;1.00;;;27.80;93.70;;;;;;5052875;28;20032;-46
2023/06/27 09:06:12;;;;;;;5.40;1.20;;;27.30;95.30;;;;;;5052751;28;20029;-45
2023/06/27 09:08:38;;;;;;;2.92;0.90;;;27.50;93.30;;;;;;5052743;28;20037;-48
2023/06/27 09:11:08;;;;;;;3.30;1.13;;;27.80;93.10;;;;;;5052698;28;20047;-47
2023/06/27 09:13:36;;;;;;;4.20;1.30;;;28.00;94.70;;;;;;5052536;28;20072;-46
2023/06/27 09:16:03;;;;;;;3.83;1.05;;;28.20;94.70;;;;;;5052343;28;20081;-45
2023/06/27 09:18:28;;;;;;;2.50;1.20;;;28.50;93.30;;;;;;5052373;28;20029;-45
2023/06/27 09:20:56;;;;;;;2.47;1.20;;;28.30;92.30;;;;;;5052567;28;20035;-47
2023/06/27 09:23:22;;;;;;;5.43;1.30;;;27.80;91.60;;;;;;5052543;28;20025;-47
2023/06/27 09:26:05;;;;;;;2.97;1.13;;;27.30;92.70;;;;;;5052382;28;20079;-45
2023/06/27 09:28:31;;;;;;;3.47;1.55;;;26.70;92.70;;;;;;5052071;28;20033;-45
2023/06/27 09:30:57;;;;;;;4.50;1.02;;;26.40;93.70;;;;;;5052415;28;20035;-49
2023/06/27 09:33:24;;;;;;;2.80;1.00;;;26.00;94.20;;;;;;5051290;28;20047;-46
2023/06/27 09:35:50;;;;;;;5.55;1.55;;;25.70;96.00;;;;;;5052168;28;20087;-46
2023/06/27 09:38:18;;;;;;;5.07;1.17;;;25.50;94.90;;;;;;5052278;28;20393;-48
2023/06/27 09:40:43;;;;;;;5.30;1.17;;;25.30;96.00;;;;;;5052110;28;20032;-48
2023/06/27 09:43:11;;;;;;;2.70;0.93;;;25.10;95.20;;;;;;5052033;28;20021;-51
2023/06/27 09:45:36;;;;;;;2.83;0.80;;;25.10;97.80;;;;;;5052112;28;20033;-49
2023/06/27 09:48:02;;;;;;;2.50;1.13;;;25.20;96.60;;;;;;5051856;28;20108;-48
2023/06/27 09:50:29;;;;;;;2.05;0.90;;;25.30;95.20;;;;;;5051779;28;20029;-48
2023/06/27 09:52:59;;;;;;;4.53;1.38;;;25.40;96.90;;;;;;5051708;28;20048;-47
2023/06/27 09:55:25;;;;;;;4.20;1.38;;;25.60;96.10;;;;;;5050836;28;20513;-43
2023/06/27 09:57:52;;;;;;;2.80;1.20;;;25.80;95.60;;;;;;5050811;28;20025;-46
2023/06/27 10:00:22;;;;;;;2.75;1.00;;;25.90;97.50;;;;;;5042971;28;20032;-48
2023/06/27 10:02:51;;;;;;;5.93;1.30;;;26.30;96.20;;;;;;5039897;28;20402;-46
2023/06/27 10:05:19;;;;;;;4.45;1.00;;;26.80;96.70;;;;;;5042280;28;20048;-51
2023/06/27 10:07:47;;;;;;;1.70;1.03;;;26.80;94.80;;;;;;5051504;28;20028;-46
2023/06/27 10:10:14;;;;;;;2.45;1.13;;;26.80;98.00;;;;;;5051148;28;20032;-50
2023/06/27 10:12:41;;;;;;;2.67;0.77;;;26.80;91.80;;;;;;5050490;28;20095;-47
2023/06/27 10:15:10;;;;;;;1.40;0.90;;;27.00;92.80;;;;;;5048171;28;20048;-48
2023/06/27 10:17:36;;;;;;;2.10;0.80;;;26.80;92.80;;;;;;5048366;28;20044;-45
2023/06/27 10:20:04;;;;;;;1.95;1.00;;;26.80;95.30;;;;;;5048524;28;20494;-49
2023/06/27 10:22:34;;;;;;;4.82;1.13;;;26.60;93.30;;;;;;5034206;28;20100;-48
2023/06/27 10:25:03;;;;;;;4.20;0.82;;;27.10;94.00;;;;;;5036771;28;20028;-52
2023/06/27 10:27:32;;;;;;;;;;;27.10;93.30;;;;;;5034504;28;20033;-47
2023/06/27 10:29:57;;;;;;;;;;;27.10;92.90;;;;;;5036174;28;20059;-44
2023/06/27 10:32:49;;;;;;;2.88;1.10;;;27.50;93.60;;;;;;5035470;28;20378;-53
2023/06/27 10:35:25;;;;;;;2.58;0.90;;;27.50;92.80;;;;;;5036814;28;20021;-47
2023/06/27 10:38:15;;;;;;;2.28;0.80;;;27.60;93.50;;;;;;5043420;28;20371;-49
2023/06/27 10:41:05;;;;;;;2.22;1.00;;;27.50;92.90;;;;;;5036905;28;20033;-51
2023/06/27 10:43:45;;;;;;;4.03;0.90;;;27.70;94.00;;;;;;5034818;28;20036;-44
2023/06/27 10:46:16;;;;;;;2.47;1.00;;;27.70;92.70;;;;;;5044657;28;20386;-53
2023/06/27 10:49:03;;;;;;;2.30;0.80;;;27.30;93.10;;;;;;5039123;28;20047;-54
2023/06/27 10:51:35;;;;;;;3.50;0.90;;;26.60;92.20;;;;;;5042976;28;20022;-43
2023/06/27 10:54:07;;;;;;;3.63;1.33;;;26.40;94.20;;;;;;5042303;28;20029;-44
2023/06/27 10:56:50;;;;;;;2.53;1.02;;;26.80;93.70;;;;;;5037632;28;20442;-50
2023/06/27 10:59:18;;;;;;;1.80;0.77;;;27.20;93.00;;;;;;5036798;28;20029;-49
2023/06/27 11:01:49;;;;;;;1.50;0.90;;;27.10;91.00;;;;;;5036970;28;20025;-45
2023/06/27 11:04:17;;;;;;;2.83;1.35;;;26.70;92.70;;;;;;5040528;28;20033;-46
2023/06/27 11:06:45;;;;;;;2.20;1.20;;;26.90;95.80;;;;;;5047658;28;20013;-47
2023/06/27 11:09:16;;;;;;;3.22;0.95;;;27.00;93.10;;;;;;5050551;28;20041;-43
2023/06/27 11:12:07;;;;;;;2.92;0.80;;;27.50;94.20;;;;;;5050389;28;20056;-51
2023/06/27 11:14:44;;;;;;;0.70;0.60;;;28.00;95.60;;;;;;5050248;28;20036;-46
2023/06/27 11:17:11;;;;;;;4.15;1.13;;;28.10;94.20;;;;;;5050268;28;20132;-51
2023/06/27 11:19:42;;;;;;;4.72;1.27;;;28.40;94.00;;;;;;5050434;28;20029;-51
2023/06/27 11:22:08;;;;;;;3.25;1.10;;;28.60;96.50;;;;;;5050044;28;20478;-50
2023/06/27 11:24:35;;;;;;;3.75;1.10;;;28.70;91.80;;;;;;5050307;28;20037;-49
2023/06/27 11:27:07;;;;;;;6.40;1.52;;;28.20;91.60;;;;;;5050025;28;20033;-53
2023/06/27 11:29:33;;;;;;;3.53;1.08;;;27.50;93.70;;;;;;5050144;28;20060;-48
2023/06/27 11:31:59;;;;;;;3.42;1.10;;;26.70;93.60;;;;;;5050264;28;20060;-55
2023/06/27 11:34:25;;;;;;;2.83;1.05;;;26.20;95.50;;;;;;5050175;28;20469;-50
2023/06/27 11:36:51;;;;;;;3.35;1.10;;;25.90;95.20;;;;;;5050179;28;20013;-48
2023/06/27 11:39:17;;;;;;;6.65;1.50;;;24.20;97.00;;;;;;5049835;28;20025;-49
2023/06/27 11:41:44;;;;;;;3.72;1.40;;;24.80;97.10;;;;;;5050004;28;20032;-53
2023/06/27 11:44:11;;;;;;;2.47;1.25;;;24.80;98.70;;;;;;5050040;28;20489;-48
2023/06/27 11:46:49;;;;;;;4.38;1.40;;;24.70;98.10;;;;;;5050368;28;20028;-45
2023/06/27 11:49:16;;;;;;;2.63;0.98;;;24.60;98.40;;;;;;5049422;28;20037;-45
2023/06/27 11:51:42;;;;;;;3.35;1.10;;;24.50;99.50;;;;;;5048951;28;20017;-46
2023/06/27 11:54:08;;;;;;;3.20;1.10;;;24.50;99.90;;;;;;5049602;28;20025;-45
2023/06/27 11:56:38;;;;;;;4.10;1.35;;;24.60;99.10;;;;;;5050074;28;20021;-51
2023/06/27 11:59:06;;;;;;;2.20;0.85;;;24.50;99.80;;;;;;5049980;28;20418;-48
2023/06/27 12:01:33;;;;;;;3.38;1.13;;;25.00;99.90;;;;;;5050280;28;20017;-46
2023/06/27 12:04:01;;;;;;;3.10;1.23;;;24.90;99.70;;;;;;5050077;28;20083;-45
2023/06/27 12:06:32;;;;;;;3.97;1.27;;;25.30;99.90;;;;;;5049912;28;20035;-44
2023/06/27 12:08:58;;;;;;;4.18;1.42;;;25.90;99.90;;;;;;5050107;28;20111;-47
2023/06/27 12:11:28;;;;;;;4.93;1.42;;;25.40;98.80;;;;;;5050162;28;20132;-46
2023/06/27 12:13:54;;;;;;;4.78;1.50;;;26.40;99.20;;;;;;5050839;28;20078;-47
2023/06/27 12:16:27;;;;;;;3.08;1.08;;;26.40;99.90;;;;;;5053581;28;20056;-59
2023/06/27 12:19:01;;;;;;;5.65;1.10;;;26.50;98.70;;;;;;5051969;28;20528;-50
2023/06/27 12:21:26;;;;;;;1.55;0.98;;;25.90;97.80;;;;;;5053511;28;20037;-52
2023/06/27 12:23:53;;;;;;;5.93;1.15;;;25.60;99.10;;;;;;5053429;28;20112;-46
2023/06/27 12:26:19;;;;;;;6.95;1.17;;;25.40;99.60;;;;;;5053404;28;20152;-56
2023/06/27 12:28:54;;;;;;;4.68;1.20;;;25.30;99.70;;;;;;5053026;28;20021;-46
2023/06/27 12:31:20;;;;;;;5.63;1.17;;;25.50;99.00;;;;;;5053324;28;20029;-53
2023/06/27 12:33:46;;;;;;;3.15;1.00;;;25.30;99.10;;;;;;5053177;28;20032;-50
2023/06/27 12:36:14;;;;;;;5.10;1.30;;;25.20;98.60;;;;;;5053584;28;20032;-50
2023/06/27 12:38:40;;;;;;;5.68;1.45;;;25.10;99.90;;;;;;5053084;28;20055;-51
2023/06/27 12:41:06;;;;;;;3.90;1.35;;;25.30;99.90;;;;;;5053177;28;20110;-44
2023/06/27 12:43:31;;;;;;;3.95;1.20;;;25.10;98.80;;;;;;5053010;28;20068;-47
2023/06/27 12:46:04;;;;;;;1.58;0.75;;;24.40;99.70;;;;;;5052912;28;20439;-46
2023/06/27 12:48:30;;;;;;;3.00;1.33;;;24.70;99.20;;;;;;5052862;28;20032;-53